createdAt,value
2023-01-17T00:02:37.315Z,98194.75
2023-01-17T00:05:59.934Z,98197.56
2023-01-17T00:09:20.890Z,98201.63
2023-01-17T00:12:29.402Z,98194.81
2023-01-17T00:15:32.156Z,98199.56
2023-01-17T00:18:35.004Z,98195.09
2023-01-17T00:21:56.270Z,98185.66
2023-01-17T00:25:18.155Z,98191.78
2023-01-17T00:28:20.981Z,98182.09
2023-01-17T00:31:23.794Z,98180.78
2023-01-17T00:34:26.428Z,98187.00
2023-01-17T00:37:29.255Z,98179.41
2023-01-17T00:40:34.116Z,98186.34
2023-01-17T00:43:56.005Z,98174.91
2023-01-17T00:47:16.942Z,98181.06
2023-01-17T00:50:38.306Z,98169.28
2023-01-17T00:53:59.309Z,98179.03
2023-01-17T00:57:21.958Z,98187.25
2023-01-17T01:00:42.897Z,98180.13
2023-01-17T01:04:04.431Z,98173.44
2023-01-17T01:07:25.642Z,98182.62
2023-01-17T01:10:47.307Z,98181.84
2023-01-17T01:14:08.852Z,98178.25
2023-01-17T01:17:30.386Z,98173.16
2023-01-17T01:20:51.710Z,98170.59
2023-01-17T01:24:12.906Z,98168.22
2023-01-17T01:27:34.332Z,98173.16
2023-01-17T01:30:55.798Z,98177.66
2023-01-17T01:33:58.278Z,98194.03
2023-01-17T01:37:01.240Z,98189.00
2023-01-17T01:40:22.576Z,98190.56
2023-01-17T01:43:46.664Z,98195.19
2023-01-17T01:46:49.222Z,98202.72
2023-01-17T01:49:52.352Z,98198.19
2023-01-17T01:52:58.916Z,98198.28
2023-01-17T01:56:05.009Z,98206.22
2023-01-17T01:59:13.997Z,98194.13
2023-01-17T02:02:17.008Z,98181.38
2023-01-17T02:05:22.884Z,98169.97
2023-01-17T02:08:25.956Z,98155.53
2023-01-17T02:11:28.949Z,98149.75
2023-01-17T02:14:31.631Z,98139.81
2023-01-17T02:17:49.737Z,98137.88
2023-01-17T02:21:14.384Z,98133.41
2023-01-17T02:24:51.073Z,98139.69
2023-01-17T02:27:59.786Z,98143.28
2023-01-17T02:31:11.688Z,98141.78
2023-01-17T02:34:25.595Z,98143.66
2023-01-17T02:37:42.295Z,98150.25
2023-01-17T02:40:49.788Z,98136.47
2023-01-17T02:43:53.775Z,98145.12
2023-01-17T02:46:58.077Z,98133.91
2023-01-17T02:50:14.110Z,98123.81
2023-01-17T02:53:25.635Z,98124.22
2023-01-17T02:57:02.368Z,98112.88
2023-01-17T03:00:23.727Z,98108.66
2023-01-17T03:03:34.575Z,98091.25
2023-01-17T03:06:44.852Z,98078.84
2023-01-17T03:09:53.627Z,98074.88
2023-01-17T03:13:00.675Z,98074.88
2023-01-17T03:16:07.938Z,98062.03
2023-01-17T03:19:11.193Z,98067.94
2023-01-17T03:22:14.174Z,98057.06
2023-01-17T03:25:17.666Z,98052.19
2023-01-17T03:28:20.712Z,98043.88
2023-01-17T03:31:23.289Z,98037.00
2023-01-17T03:34:26.151Z,98032.81
2023-01-17T03:37:28.770Z,98040.41
2023-01-17T03:40:31.787Z,98036.03
2023-01-17T03:43:34.408Z,98037.00
2023-01-17T03:46:37.323Z,98024.69
2023-01-17T03:49:40.515Z,98015.25
2023-01-17T03:52:43.369Z,98017.00
2023-01-17T03:55:46.489Z,98016.47
2023-01-17T03:58:49.372Z,98013.19
2023-01-17T04:01:52.534Z,98006.31
2023-01-17T04:04:55.464Z,98010.69
2023-01-17T04:07:57.987Z,98003.00
2023-01-17T04:11:00.918Z,98012.94
2023-01-17T04:14:03.713Z,98007.94
2023-01-17T04:17:07.420Z,98003.97
2023-01-17T04:20:27.328Z,98009.25
2023-01-17T04:23:30.110Z,98009.09
2023-01-17T04:26:32.775Z,98008.91
2023-01-17T04:29:35.765Z,98014.31
2023-01-17T04:32:38.337Z,98018.53
2023-01-17T04:35:41.226Z,98010.16
2023-01-17T04:38:43.968Z,98008.44
2023-01-17T04:41:46.919Z,98008.84
2023-01-17T04:44:49.519Z,98010.56
2023-01-17T04:47:52.554Z,98000.50
2023-01-17T04:51:02.017Z,98001.22
2023-01-17T04:54:05.013Z,98003.63
2023-01-17T04:57:07.551Z,98007.84
2023-01-17T05:00:11.756Z,98007.59
2023-01-17T05:03:14.304Z,98002.56
2023-01-17T05:06:17.224Z,98007.16
2023-01-17T05:09:19.807Z,98009.72
2023-01-17T05:12:22.735Z,98005.22
2023-01-17T05:15:26.515Z,98016.25
2023-01-17T05:18:29.405Z,98003.50
2023-01-17T05:21:32.345Z,98008.00
2023-01-17T05:24:35.239Z,98008.28
2023-01-17T05:27:37.900Z,98008.28
2023-01-17T05:30:41.391Z,98010.84
2023-01-17T05:33:44.099Z,98013.78
2023-01-17T05:36:46.864Z,98013.44
2023-01-17T05:39:49.405Z,98016.28
2023-01-17T05:42:56.701Z,98008.62
2023-01-17T05:45:59.287Z,98014.72
2023-01-17T05:49:02.264Z,98020.56
2023-01-17T05:52:05.180Z,98028.69
2023-01-17T05:55:08.958Z,98031.16
2023-01-17T05:58:17.481Z,98038.69
2023-01-17T06:01:20.339Z,98037.97
2023-01-17T06:04:23.202Z,98057.00
2023-01-17T06:07:25.838Z,98054.22
2023-01-17T06:10:29.484Z,98059.56
2023-01-17T06:13:33.982Z,98069.66
2023-01-17T06:16:36.849Z,98073.88
2023-01-17T06:19:39.556Z,98064.13
2023-01-17T06:22:42.959Z,98077.16
2023-01-17T06:25:46.736Z,98076.03
2023-01-17T06:28:49.589Z,98073.97
2023-01-17T06:31:52.608Z,98071.06
2023-01-17T06:34:55.603Z,98077.94
2023-01-17T06:38:00.059Z,98082.44
2023-01-17T06:41:06.524Z,98078.84
2023-01-17T06:44:10.026Z,98088.19
2023-01-17T06:47:12.852Z,98103.97
2023-01-17T06:50:15.929Z,98110.28
2023-01-17T06:53:19.805Z,98135.38
2023-01-17T06:56:22.497Z,98138.16
2023-01-17T06:59:25.714Z,98139.97
2023-01-17T07:02:28.266Z,98150.22
2023-01-17T07:05:31.313Z,98148.50
2023-01-17T07:08:34.051Z,98147.09
2023-01-17T07:11:37.038Z,98154.03
2023-01-17T07:14:39.620Z,98172.91
2023-01-17T07:17:42.535Z,98175.66
2023-01-17T07:20:45.057Z,98184.22
2023-01-17T07:23:48.317Z,98189.50
2023-01-17T07:26:51.763Z,98184.84
2023-01-17T07:29:54.680Z,98197.03
2023-01-17T07:32:58.202Z,98197.25
2023-01-17T07:36:09.427Z,98199.56
2023-01-17T07:39:12.373Z,98210.50
2023-01-17T07:42:15.411Z,98214.44
2023-01-17T07:45:18.169Z,98217.72
2023-01-17T07:48:24.052Z,98234.53
2023-01-17T07:51:26.678Z,98253.50
2023-01-17T07:54:29.784Z,98257.44
2023-01-17T07:57:32.961Z,98257.66
2023-01-17T08:00:35.890Z,98269.88
2023-01-17T08:03:42.535Z,98273.56
2023-01-17T08:06:50.854Z,98273.44
2023-01-17T08:09:54.804Z,98273.81
2023-01-17T08:12:57.420Z,98280.34
2023-01-17T08:16:02.480Z,98278.41
2023-01-17T08:19:05.112Z,98283.59
2023-01-17T08:22:08.293Z,98292.84
2023-01-17T08:25:11.174Z,98295.59
2023-01-17T08:28:14.128Z,98300.22
2023-01-17T08:31:17.664Z,98306.38
2023-01-17T08:34:20.801Z,98302.59
2023-01-17T08:37:23.942Z,98315.09
2023-01-17T08:40:27.017Z,98321.75
2023-01-17T08:43:29.663Z,98328.53
2023-01-17T08:46:32.968Z,98337.88
2023-01-17T08:49:35.592Z,98339.78
2023-01-17T08:52:39.056Z,98335.91
2023-01-17T08:55:41.611Z,98324.91
2023-01-17T08:58:45.319Z,98321.69
2023-01-17T09:01:48.169Z,98318.47
2023-01-17T09:04:51.432Z,98332.03
2023-01-17T09:07:55.431Z,98329.19
2023-01-17T09:10:58.366Z,98325.13
2023-01-17T09:14:01.905Z,98321.41
2023-01-17T09:17:06.815Z,98324.56
2023-01-17T09:20:10.183Z,98343.84
2023-01-17T09:23:14.203Z,98341.34
2023-01-17T09:26:23.103Z,98340.28
2023-01-17T09:29:25.919Z,98341.84
2023-01-17T09:32:28.754Z,98355.13
2023-01-17T09:35:31.614Z,98348.91
2023-01-17T09:38:34.668Z,98359.59
2023-01-17T09:41:56.545Z,98363.56
2023-01-17T09:44:59.203Z,98371.13
2023-01-17T09:48:09.831Z,98366.59
2023-01-17T09:51:21.758Z,98371.84
2023-01-17T09:54:32.276Z,98380.75
2023-01-17T09:58:10.733Z,98381.78
2023-01-17T10:01:24.521Z,98392.75
2023-01-17T10:04:33.469Z,98385.75
2023-01-17T10:07:52.327Z,98386.53
2023-01-17T10:11:10.425Z,98394.19
2023-01-17T10:14:48.087Z,98404.59
2023-01-17T10:18:29.849Z,98394.38
2023-01-17T10:22:24.119Z,98397.09
2023-01-17T10:25:49.271Z,98406.09
2023-01-17T10:28:54.646Z,98404.00
2023-01-17T10:32:01.897Z,98406.56
2023-01-17T10:35:17.852Z,98400.94
2023-01-17T10:38:26.567Z,98391.47
2023-01-17T10:41:40.369Z,98390.84
2023-01-17T10:45:03.641Z,98385.19
2023-01-17T10:48:23.312Z,98379.28
2023-01-17T10:52:08.644Z,98370.22
2023-01-17T10:55:26.379Z,98369.84
2023-01-17T10:58:29.363Z,98371.50
2023-01-17T11:01:32.121Z,98368.56
2023-01-17T11:04:41.917Z,98352.34
2023-01-17T11:08:00.972Z,98356.28
2023-01-17T11:11:04.515Z,98353.84
2023-01-17T11:14:26.049Z,98343.34
2023-01-17T11:17:29.987Z,98328.81
2023-01-17T11:20:35.748Z,98333.22
2023-01-17T11:23:43.727Z,98328.88
2023-01-17T11:26:49.575Z,98334.94
2023-01-17T11:30:04.500Z,98333.81
2023-01-17T11:33:33.722Z,98318.75
2023-01-17T11:36:36.714Z,98317.47
2023-01-17T11:39:39.385Z,98316.31
2023-01-17T11:42:42.283Z,98304.97
2023-01-17T11:45:46.896Z,98293.78
2023-01-17T11:48:56.401Z,98293.56
2023-01-17T11:51:59.303Z,98286.94
2023-01-17T11:55:02.265Z,98298.09
2023-01-17T11:58:05.013Z,98291.69
2023-01-17T12:01:39.526Z,98299.53
2023-01-17T12:04:51.386Z,98306.25
2023-01-17T12:08:51.291Z,98332.37
2023-01-17T12:12:29.910Z,98334.88
2023-01-17T12:15:38.596Z,98340.69
2023-01-17T12:18:58.516Z,98336.66
2023-01-17T12:22:20.478Z,98339.84
2023-01-17T12:25:29.528Z,98340.16
2023-01-17T12:29:05.559Z,98333.81
2023-01-17T12:32:40.602Z,98335.72
2023-01-17T12:35:50.793Z,98338.78
2023-01-17T12:38:56.535Z,98336.41
2023-01-17T12:42:09.527Z,98330.88
2023-01-17T12:45:32.212Z,98334.69
2023-01-17T12:48:39.325Z,98337.00
2023-01-17T12:51:47.294Z,98334.72
2023-01-17T12:54:57.644Z,98338.25
2023-01-17T12:58:07.345Z,98334.66
2023-01-17T13:01:43.339Z,98329.25
2023-01-17T13:04:58.878Z,98328.22
2023-01-17T13:08:20.498Z,98333.06
2023-01-17T13:11:38.306Z,98314.75
2023-01-17T13:14:41.509Z,98317.13
2023-01-17T13:17:51.244Z,98320.22
2023-01-17T13:21:32.632Z,98314.22
2023-01-17T13:25:00.350Z,98321.88
2023-01-17T13:28:03.312Z,98320.56
2023-01-17T13:31:24.604Z,98324.75
2023-01-17T13:35:11.613Z,98329.09
2023-01-17T13:38:26.606Z,98335.44
2023-01-17T13:41:51.642Z,98328.16
2023-01-17T13:44:54.758Z,98323.09
2023-01-17T13:48:12.653Z,98315.31
2023-01-17T13:51:15.538Z,98310.53
2023-01-17T13:54:34.681Z,98306.34
2023-01-17T13:57:43.535Z,98307.34
2023-01-17T14:00:46.836Z,98302.78
2023-01-17T14:03:52.643Z,98295.72
2023-01-17T14:06:59.459Z,98286.25
2023-01-17T14:10:22.251Z,98277.87
2023-01-17T14:13:38.452Z,98260.09
2023-01-17T14:16:41.300Z,98256.59
2023-01-17T14:19:48.552Z,98247.75
2023-01-17T14:22:53.663Z,98242.06
2023-01-17T14:25:59.901Z,98231.75
2023-01-17T14:29:40.463Z,98233.06
2023-01-17T14:33:01.120Z,98230.75
2023-01-17T14:36:07.175Z,98220.84
2023-01-17T14:39:22.717Z,98211.09
2023-01-17T14:42:29.532Z,98203.81
2023-01-17T14:45:35.238Z,98189.66
2023-01-17T14:48:40.479Z,98186.56
2023-01-17T14:51:43.159Z,98205.03
2023-01-17T14:54:52.837Z,98194.37
2023-01-17T14:57:56.867Z,98187.19
2023-01-17T15:01:02.974Z,98178.00
2023-01-17T15:04:05.887Z,98187.37
2023-01-17T15:07:16.385Z,98178.66
2023-01-17T15:10:23.832Z,98173.94
2023-01-17T15:13:43.762Z,98168.59
2023-01-17T15:16:47.159Z,98174.41
2023-01-17T15:19:57.976Z,98183.97
2023-01-17T15:23:00.949Z,98187.75
2023-01-17T15:26:06.947Z,98178.47
2023-01-17T15:29:17.601Z,98177.81
2023-01-17T15:32:23.719Z,98179.47
2023-01-17T15:35:28.289Z,98180.37
2023-01-17T15:38:38.482Z,98179.09
2023-01-17T15:41:42.065Z,98169.28
2023-01-17T15:44:48.899Z,98154.91
2023-01-17T15:47:51.956Z,98157.47
2023-01-17T15:50:59.131Z,98144.50
2023-01-17T15:54:24.657Z,98150.97
2023-01-17T15:57:37.004Z,98145.09
2023-01-17T16:00:41.955Z,98138.75
2023-01-17T16:03:54.755Z,98134.88
2023-01-17T16:07:22.325Z,98132.75
2023-01-17T16:10:31.838Z,98128.34
2023-01-17T16:13:42.208Z,98122.28
2023-01-17T16:16:52.993Z,98115.03
2023-01-17T16:19:55.724Z,98122.09
2023-01-17T16:23:00.387Z,98125.13
2023-01-17T16:26:03.180Z,98122.91
2023-01-17T16:29:07.616Z,98123.66
2023-01-17T16:32:10.149Z,98118.59
2023-01-17T16:35:19.070Z,98113.66
2023-01-17T16:38:21.737Z,98104.34
2023-01-17T16:41:25.255Z,98099.12
2023-01-17T16:44:28.425Z,98094.22
2023-01-17T16:47:31.240Z,98090.88
2023-01-17T16:50:34.004Z,98093.78
2023-01-17T16:53:37.597Z,98090.47
2023-01-17T16:56:40.891Z,98085.16
2023-01-17T16:59:50.719Z,98080.44
2023-01-17T17:02:54.018Z,98080.25
2023-01-17T17:06:00.036Z,98075.06
2023-01-17T17:09:03.388Z,98074.03
2023-01-17T17:12:06.877Z,98071.09
2023-01-17T17:15:10.951Z,98067.78
2023-01-17T17:18:15.813Z,98066.03
2023-01-17T17:21:18.333Z,98056.19
2023-01-17T17:24:21.298Z,98042.63
2023-01-17T17:27:26.605Z,98039.66
2023-01-17T17:30:31.169Z,98039.59
2023-01-17T17:33:35.010Z,98026.59
2023-01-17T17:36:42.332Z,98023.25
2023-01-17T17:39:46.205Z,98022.59
2023-01-17T17:42:50.356Z,98015.31
2023-01-17T17:45:53.092Z,98013.69
2023-01-17T17:48:58.065Z,97999.66
2023-01-17T17:52:08.230Z,97991.28
2023-01-17T17:55:13.140Z,97984.97
2023-01-17T17:58:16.033Z,97976.53
2023-01-17T18:01:19.814Z,97984.97
2023-01-17T18:04:23.041Z,97974.16
2023-01-17T18:07:25.834Z,97954.88
2023-01-17T18:10:28.792Z,97940.75
2023-01-17T18:13:33.170Z,97930.81
2023-01-17T18:16:41.830Z,97926.81
2023-01-17T18:19:46.267Z,97915.06
2023-01-17T18:22:49.336Z,97920.75
2023-01-17T18:25:52.244Z,97907.50
2023-01-17T18:28:57.110Z,97910.81
2023-01-17T18:31:59.861Z,97897.53
2023-01-17T18:35:03.948Z,97883.50
2023-01-17T18:38:06.695Z,97890.28
2023-01-17T18:41:21.515Z,97880.25
2023-01-17T18:44:24.711Z,97880.44
2023-01-17T18:47:29.194Z,97885.50
2023-01-17T18:50:31.995Z,97868.59
2023-01-17T18:53:37.376Z,97873.84
2023-01-17T18:56:40.427Z,97862.56
2023-01-17T18:59:44.385Z,97865.59
2023-01-17T19:02:48.940Z,97848.44
2023-01-17T19:05:52.055Z,97841.34
2023-01-17T19:08:54.829Z,97828.72
2023-01-17T19:11:58.322Z,97821.84
2023-01-17T19:15:02.053Z,97820.53
2023-01-17T19:18:05.953Z,97820.63
2023-01-17T19:21:14.335Z,97807.81
2023-01-17T19:24:17.802Z,97805.59
2023-01-17T19:27:20.986Z,97795.31
2023-01-17T19:30:24.432Z,97791.37
2023-01-17T19:33:27.081Z,97792.47
2023-01-17T19:36:35.830Z,97778.62
2023-01-17T19:39:38.600Z,97780.53
2023-01-17T19:42:42.092Z,97772.81
2023-01-17T19:45:54.644Z,97759.44
2023-01-17T19:48:58.075Z,97748.34
2023-01-17T19:52:00.966Z,97740.50
2023-01-17T19:55:07.049Z,97721.63
2023-01-17T19:58:09.797Z,97721.25
2023-01-17T20:01:20.836Z,97710.31
2023-01-17T20:04:24.201Z,97701.91
2023-01-17T20:07:27.409Z,97694.50
2023-01-17T20:10:31.266Z,97703.94
2023-01-17T20:13:34.365Z,97703.25
2023-01-17T20:16:37.779Z,97695.28
2023-01-17T20:19:40.675Z,97708.09
2023-01-17T20:22:45.137Z,97710.84
2023-01-17T20:26:00.743Z,97705.91
2023-01-17T20:29:10.686Z,97696.00
2023-01-17T20:32:13.587Z,97677.84
2023-01-17T20:35:17.514Z,97681.16
2023-01-17T20:38:21.468Z,97698.38
2023-01-17T20:41:28.661Z,97701.19
2023-01-17T20:44:33.139Z,97697.81
2023-01-17T20:47:36.051Z,97707.69
2023-01-17T20:50:38.864Z,97692.41
2023-01-17T20:53:44.253Z,97690.34
2023-01-17T20:56:47.930Z,97682.84
2023-01-17T20:59:51.289Z,97686.56
2023-01-17T21:02:54.027Z,97694.91
2023-01-17T21:06:04.552Z,97679.78
2023-01-17T21:09:11.018Z,97639.19
2023-01-17T21:12:15.943Z,97620.94
2023-01-17T21:15:18.708Z,97614.69
2023-01-17T21:18:24.245Z,97620.72
2023-01-17T21:21:28.952Z,97604.88
2023-01-17T21:24:31.731Z,97587.41
2023-01-17T21:27:34.663Z,97588.47
2023-01-17T21:30:37.693Z,97574.00
2023-01-17T21:33:40.302Z,97572.88
2023-01-17T21:36:43.641Z,97571.41
2023-01-17T21:39:51.406Z,97567.53
2023-01-17T21:42:54.215Z,97568.19
2023-01-17T21:45:56.852Z,97558.78
2023-01-17T21:49:00.120Z,97548.91
2023-01-17T21:52:03.013Z,97545.50
2023-01-17T21:55:25.034Z,97539.09
2023-01-17T21:58:59.855Z,97540.25
2023-01-17T22:02:02.879Z,97553.75
2023-01-17T22:05:06.234Z,97547.41
2023-01-17T22:08:13.874Z,97526.84
2023-01-17T22:11:19.999Z,97522.72
2023-01-17T22:14:22.617Z,97524.47
2023-01-17T22:17:25.469Z,97512.50
2023-01-17T22:20:28.246Z,97523.72
2023-01-17T22:23:31.156Z,97515.38
2023-01-17T22:26:33.901Z,97498.94
2023-01-17T22:29:37.596Z,97490.56
2023-01-17T22:32:40.731Z,97490.56
2023-01-17T22:35:43.632Z,97492.22
2023-01-17T22:38:46.923Z,97493.84
2023-01-17T22:41:49.855Z,97506.22
2023-01-17T22:44:52.502Z,97507.59
2023-01-17T22:47:55.539Z,97512.38
2023-01-17T22:51:02.533Z,97526.75
2023-01-17T22:54:05.643Z,97536.63
2023-01-17T22:57:08.465Z,97535.88
2023-01-17T23:00:14.620Z,97518.53
2023-01-17T23:03:17.326Z,97512.78
2023-01-17T23:06:23.488Z,97515.81
2023-01-17T23:09:26.161Z,97518.94
2023-01-17T23:12:29.255Z,97520.59
2023-01-17T23:15:50.590Z,97526.28
2023-01-17T23:19:12.069Z,97525.09
2023-01-17T23:22:26.949Z,97519.62
2023-01-17T23:25:30.001Z,97534.78
2023-01-17T23:28:32.743Z,97525.13
2023-01-17T23:31:36.740Z,97531.16
2023-01-17T23:34:39.349Z,97539.56
2023-01-17T23:38:01.124Z,97543.16
2023-01-17T23:41:25.144Z,97541.88
2023-01-17T23:44:31.748Z,97544.66
2023-01-17T23:47:34.368Z,97542.16
2023-01-17T23:50:39.016Z,97523.13
2023-01-17T23:53:41.632Z,97539.25
2023-01-17T23:56:44.827Z,97538.16
2023-01-17T23:59:47.392Z,97545.94
